sensor_id;sensor_type;location;lat;lon;timestamp;P1;durP1;ratioP1;P2;durP2;ratioP2
9997;SDS011;5038;53.064;8.624;2022-09-09T00:00:13;14.93;;;13.73;;
9997;SDS011;5038;53.064;8.624;2022-09-09T00:02:44;15.90;;;14.53;;
9997;SDS011;5038;53.064;8.624;2022-09-09T00:05:23;17.60;;;15.87;;
9997;SDS011;5038;53.064;8.624;2022-09-09T00:07:59;17.40;;;15.97;;
9997;SDS011;5038;53.064;8.624;2022-09-09T00:10:31;18.47;;;16.77;;
9997;SDS011;5038;53.064;8.624;2022-09-09T00:13:08;18.27;;;16.67;;
9997;SDS011;5038;53.064;8.624;2022-09-09T00:15:45;19.23;;;17.70;;
9997;SDS011;5038;53.064;8.624;2022-09-09T00:18:24;18.23;;;16.67;;
9997;SDS011;5038;53.064;8.624;2022-09-09T00:20:58;17.77;;;16.13;;
9997;SDS011;5038;53.064;8.624;2022-09-09T00:23:32;17.90;;;16.30;;
9997;SDS011;5038;53.064;8.624;2022-09-09T00:26:04;17.60;;;16.10;;
9997;SDS011;5038;53.064;8.624;2022-09-09T00:28:41;21.60;;;19.77;;
9997;SDS011;5038;53.064;8.624;2022-09-09T00:31:13;19.57;;;17.80;;
9997;SDS011;5038;53.064;8.624;2022-09-09T00:33:46;19.50;;;17.90;;
9997;SDS011;5038;53.064;8.624;2022-09-09T00:36:16;18.73;;;17.13;;
9997;SDS011;5038;53.064;8.624;2022-09-09T00:38:49;18.80;;;17.27;;
9997;SDS011;5038;53.064;8.624;2022-09-09T00:41:21;18.87;;;17.17;;
9997;SDS011;5038;53.064;8.624;2022-09-09T00:43:57;20.20;;;18.40;;
9997;SDS011;5038;53.064;8.624;2022-09-09T00:46:38;19.40;;;17.60;;
9997;SDS011;5038;53.064;8.624;2022-09-09T00:49:19;20.20;;;18.60;;
9997;SDS011;5038;53.064;8.624;2022-09-09T00:51:57;18.93;;;17.27;;
9997;SDS011;5038;53.064;8.624;2022-09-09T00:54:36;20.37;;;18.67;;
9997;SDS011;5038;53.064;8.624;2022-09-09T00:57:13;21.40;;;19.37;;
9997;SDS011;5038;53.064;8.624;2022-09-09T00:59:52;20.60;;;18.70;;
9997;SDS011;5038;53.064;8.624;2022-09-09T01:02:26;22.83;;;20.83;;
9997;SDS011;5038;53.064;8.624;2022-09-09T01:04:58;21.37;;;19.57;;
9997;SDS011;5038;53.064;8.624;2022-09-09T01:07:33;22.80;;;20.60;;
9997;SDS011;5038;53.064;8.624;2022-09-09T01:10:01;22.57;;;20.70;;
9997;SDS011;5038;53.064;8.624;2022-09-09T01:12:37;21.00;;;19.20;;
9997;SDS011;5038;53.064;8.624;2022-09-09T01:15:17;21.73;;;19.97;;
9997;SDS011;5038;53.064;8.624;2022-09-09T01:17:53;20.53;;;18.83;;
9997;SDS011;5038;53.064;8.624;2022-09-09T01:20:29;23.40;;;21.40;;
9997;SDS011;5038;53.064;8.624;2022-09-09T01:23:11;23.93;;;21.63;;
9997;SDS011;5038;53.064;8.624;2022-09-09T01:26:17;23.10;;;21.10;;
9997;SDS011;5038;53.064;8.624;2022-09-09T01:28:51;21.10;;;19.20;;
9997;SDS011;5038;53.064;8.624;2022-09-09T01:31:30;22.67;;;20.77;;
9997;SDS011;5038;53.064;8.624;2022-09-09T01:34:08;22.20;;;20.20;;
9997;SDS011;5038;53.064;8.624;2022-09-09T01:36:38;21.67;;;19.67;;
9997;SDS011;5038;53.064;8.624;2022-09-09T01:39:11;23.03;;;20.93;;
9997;SDS011;5038;53.064;8.624;2022-09-09T01:41:43;23.37;;;21.20;;
9997;SDS011;5038;53.064;8.624;2022-09-09T01:44:12;23.20;;;21.13;;
9997;SDS011;5038;53.064;8.624;2022-09-09T01:46:43;21.67;;;19.77;;
9997;SDS011;5038;53.064;8.624;2022-09-09T01:49:17;21.67;;;19.47;;
9997;SDS011;5038;53.064;8.624;2022-09-09T01:51:46;21.07;;;18.87;;
9997;SDS011;5038;53.064;8.624;2022-09-09T01:54:19;21.07;;;19.27;;
9997;SDS011;5038;53.064;8.624;2022-09-09T01:57:01;20.93;;;19.13;;
9997;SDS011;5038;53.064;8.624;2022-09-09T01:59:47;19.53;;;17.70;;
9997;SDS011;5038;53.064;8.624;2022-09-09T02:02:23;20.40;;;18.60;;
9997;SDS011;5038;53.064;8.624;2022-09-09T02:05:07;17.67;;;16.10;;
9997;SDS011;5038;53.064;8.624;2022-09-09T02:07:45;20.67;;;18.77;;
9997;SDS011;5038;53.064;8.624;2022-09-09T02:10:30;20.40;;;18.70;;
9997;SDS011;5038;53.064;8.624;2022-09-09T02:13:16;20.80;;;18.90;;
9997;SDS011;5038;53.064;8.624;2022-09-09T02:15:47;20.37;;;18.57;;
9997;SDS011;5038;53.064;8.624;2022-09-09T02:18:22;21.77;;;19.97;;
9997;SDS011;5038;53.064;8.624;2022-09-09T02:20:54;19.50;;;17.83;;
9997;SDS011;5038;53.064;8.624;2022-09-09T02:23:24;21.20;;;19.20;;
9997;SDS011;5038;53.064;8.624;2022-09-09T02:25:54;21.20;;;19.10;;
9997;SDS011;5038;53.064;8.624;2022-09-09T02:28:28;18.10;;;16.70;;
9997;SDS011;5038;53.064;8.624;2022-09-09T02:30:59;20.47;;;18.70;;
9997;SDS011;5038;53.064;8.624;2022-09-09T02:33:35;18.27;;;16.77;;
9997;SDS011;5038;53.064;8.624;2022-09-09T02:36:07;20.57;;;18.53;;
9997;SDS011;5038;53.064;8.624;2022-09-09T02:38:40;18.33;;;16.63;;
9997;SDS011;5038;53.064;8.624;2022-09-09T02:41:15;19.27;;;17.57;;
9997;SDS011;5038;53.064;8.624;2022-09-09T02:43:45;19.07;;;17.37;;
9997;SDS011;5038;53.064;8.624;2022-09-09T02:46:19;18.70;;;16.90;;
9997;SDS011;5038;53.064;8.624;2022-09-09T02:48:59;17.77;;;16.07;;
9997;SDS011;5038;53.064;8.624;2022-09-09T02:51:37;18.40;;;16.80;;
9997;SDS011;5038;53.064;8.624;2022-09-09T02:54:16;17.37;;;15.77;;
9997;SDS011;5038;53.064;8.624;2022-09-09T02:56:51;15.63;;;14.33;;
9997;SDS011;5038;53.064;8.624;2022-09-09T02:59:31;16.50;;;14.80;;
9997;SDS011;5038;53.064;8.624;2022-09-09T03:02:00;17.40;;;15.87;;
9997;SDS011;5038;53.064;8.624;2022-09-09T03:04:30;17.10;;;15.50;;
9997;SDS011;5038;53.064;8.624;2022-09-09T03:06:58;18.13;;;16.63;;
9997;SDS011;5038;53.064;8.624;2022-09-09T03:09:26;18.80;;;17.00;;
9997;SDS011;5038;53.064;8.624;2022-09-09T03:11:55;20.80;;;18.90;;
9997;SDS011;5038;53.064;8.624;2022-09-09T03:14:25;20.33;;;17.17;;
9997;SDS011;5038;53.064;8.624;2022-09-09T03:16:55;19.07;;;15.90;;
9997;SDS011;5038;53.064;8.624;2022-09-09T03:19:29;22.20;;;20.30;;
9997;SDS011;5038;53.064;8.624;2022-09-09T03:21:58;18.47;;;16.97;;
9997;SDS011;5038;53.064;8.624;2022-09-09T03:24:28;19.23;;;17.53;;
9997;SDS011;5038;53.064;8.624;2022-09-09T03:26:57;21.37;;;19.67;;
9997;SDS011;5038;53.064;8.624;2022-09-09T03:29:25;17.50;;;16.00;;
9997;SDS011;5038;53.064;8.624;2022-09-09T03:31:58;17.97;;;16.27;;
9997;SDS011;5038;53.064;8.624;2022-09-09T03:34:26;16.20;;;14.80;;
9997;SDS011;5038;53.064;8.624;2022-09-09T03:36:57;15.23;;;13.83;;
9997;SDS011;5038;53.064;8.624;2022-09-09T03:39:27;15.70;;;14.40;;
9997;SDS011;5038;53.064;8.624;2022-09-09T03:41:55;16.77;;;15.27;;
9997;SDS011;5038;53.064;8.624;2022-09-09T03:44:24;16.43;;;15.00;;
9997;SDS011;5038;53.064;8.624;2022-09-09T03:46:53;15.80;;;14.50;;
9997;SDS011;5038;53.064;8.624;2022-09-09T03:49:23;17.00;;;15.40;;
9997;SDS011;5038;53.064;8.624;2022-09-09T03:51:54;17.33;;;15.80;;
9997;SDS011;5038;53.064;8.624;2022-09-09T03:54:22;16.53;;;15.07;;
9997;SDS011;5038;53.064;8.624;2022-09-09T03:56:51;16.97;;;15.47;;
9997;SDS011;5038;53.064;8.624;2022-09-09T03:59:21;16.73;;;15.17;;
9997;SDS011;5038;53.064;8.624;2022-09-09T04:01:49;15.73;;;14.43;;
9997;SDS011;5038;53.064;8.624;2022-09-09T04:04:18;16.80;;;15.13;;
9997;SDS011;5038;53.064;8.624;2022-09-09T04:06:48;15.27;;;14.00;;
9997;SDS011;5038;53.064;8.624;2022-09-09T04:09:17;14.77;;;13.47;;
9997;SDS011;5038;53.064;8.624;2022-09-09T04:11:47;16.50;;;15.00;;
9997;SDS011;5038;53.064;8.624;2022-09-09T04:14:15;14.30;;;13.10;;
9997;SDS011;5038;53.064;8.624;2022-09-09T04:16:44;14.30;;;13.10;;
9997;SDS011;5038;53.064;8.624;2022-09-09T04:19:12;16.57;;;15.07;;
9997;SDS011;5038;53.064;8.624;2022-09-09T04:21:42;15.87;;;14.50;;
9997;SDS011;5038;53.064;8.624;2022-09-09T04:24:12;14.77;;;13.47;;
9997;SDS011;5038;53.064;8.624;2022-09-09T04:26:42;14.43;;;13.27;;
9997;SDS011;5038;53.064;8.624;2022-09-09T04:29:12;14.97;;;13.77;;
9997;SDS011;5038;53.064;8.624;2022-09-09T04:31:40;15.27;;;13.97;;
9997;SDS011;5038;53.064;8.624;2022-09-09T04:34:09;13.87;;;12.70;;
9997;SDS011;5038;53.064;8.624;2022-09-09T04:36:38;14.30;;;13.00;;
9997;SDS011;5038;53.064;8.624;2022-09-09T04:39:07;15.23;;;13.83;;
9997;SDS011;5038;53.064;8.624;2022-09-09T04:41:37;15.07;;;13.67;;
9997;SDS011;5038;53.064;8.624;2022-09-09T04:44:05;15.03;;;13.43;;
9997;SDS011;5038;53.064;8.624;2022-09-09T04:46:33;14.87;;;13.57;;
9997;SDS011;5038;53.064;8.624;2022-09-09T04:49:02;14.77;;;13.20;;
9997;SDS011;5038;53.064;8.624;2022-09-09T04:51:32;15.10;;;13.70;;
9997;SDS011;5038;53.064;8.624;2022-09-09T04:54:01;14.97;;;13.57;;
9997;SDS011;5038;53.064;8.624;2022-09-09T04:56:29;12.30;;;11.20;;
9997;SDS011;5038;53.064;8.624;2022-09-09T04:59:01;14.30;;;12.93;;
9997;SDS011;5038;53.064;8.624;2022-09-09T05:01:39;13.70;;;12.40;;
9997;SDS011;5038;53.064;8.624;2022-09-09T05:04:08;13.63;;;12.33;;
9997;SDS011;5038;53.064;8.624;2022-09-09T05:06:36;13.57;;;12.40;;
9997;SDS011;5038;53.064;8.624;2022-09-09T05:09:04;12.47;;;11.47;;
9997;SDS011;5038;53.064;8.624;2022-09-09T05:11:33;13.73;;;12.37;;
9997;SDS011;5038;53.064;8.624;2022-09-09T05:14:17;16.23;;;13.30;;
9997;SDS011;5038;53.064;8.624;2022-09-09T05:16:45;12.43;;;11.30;;
9997;SDS011;5038;53.064;8.624;2022-09-09T05:19:14;13.40;;;12.30;;
9997;SDS011;5038;53.064;8.624;2022-09-09T05:21:49;13.23;;;11.93;;
9997;SDS011;5038;53.064;8.624;2022-09-09T05:24:22;12.67;;;11.37;;
9997;SDS011;5038;53.064;8.624;2022-09-09T05:26:53;12.53;;;11.23;;
9997;SDS011;5038;53.064;8.624;2022-09-09T05:29:25;12.60;;;11.43;;
9997;SDS011;5038;53.064;8.624;2022-09-09T05:31:55;12.77;;;11.57;;
9997;SDS011;5038;53.064;8.624;2022-09-09T05:34:23;12.87;;;11.47;;
9997;SDS011;5038;53.064;8.624;2022-09-09T05:36:52;12.10;;;11.00;;
9997;SDS011;5038;53.064;8.624;2022-09-09T05:39:22;11.87;;;10.77;;
9997;SDS011;5038;53.064;8.624;2022-09-09T05:41:51;11.63;;;10.63;;
9997;SDS011;5038;53.064;8.624;2022-09-09T05:44:19;10.93;;;9.90;;
9997;SDS011;5038;53.064;8.624;2022-09-09T05:46:51;12.60;;;11.37;;
9997;SDS011;5038;53.064;8.624;2022-09-09T05:49:21;12.30;;;11.20;;
9997;SDS011;5038;53.064;8.624;2022-09-09T05:51:49;15.03;;;12.33;;
9997;SDS011;5038;53.064;8.624;2022-09-09T05:54:19;14.53;;;13.10;;
9997;SDS011;5038;53.064;8.624;2022-09-09T05:56:50;16.13;;;14.43;;
9997;SDS011;5038;53.064;8.624;2022-09-09T05:59:19;15.10;;;13.70;;
9997;SDS011;5038;53.064;8.624;2022-09-09T06:01:52;15.30;;;13.70;;
9997;SDS011;5038;53.064;8.624;2022-09-09T06:04:29;12.60;;;11.50;;
9997;SDS011;5038;53.064;8.624;2022-09-09T06:06:59;12.80;;;11.50;;
9997;SDS011;5038;53.064;8.624;2022-09-09T06:09:28;12.90;;;11.70;;
9997;SDS011;5038;53.064;8.624;2022-09-09T06:11:56;15.53;;;12.50;;
9997;SDS011;5038;53.064;8.624;2022-09-09T06:14:26;13.53;;;12.17;;
9997;SDS011;5038;53.064;8.624;2022-09-09T06:16:58;15.93;;;12.00;;
9997;SDS011;5038;53.064;8.624;2022-09-09T06:19:29;12.93;;;11.37;;
9997;SDS011;5038;53.064;8.624;2022-09-09T06:21:58;12.33;;;10.97;;
9997;SDS011;5038;53.064;8.624;2022-09-09T06:24:29;13.60;;;11.40;;
9997;SDS011;5038;53.064;8.624;2022-09-09T06:27:00;14.47;;;13.13;;
9997;SDS011;5038;53.064;8.624;2022-09-09T06:29:32;11.50;;;10.37;;
9997;SDS011;5038;53.064;8.624;2022-09-09T06:32:02;11.53;;;10.43;;
9997;SDS011;5038;53.064;8.624;2022-09-09T06:34:31;11.67;;;10.47;;
9997;SDS011;5038;53.064;8.624;2022-09-09T06:36:59;12.07;;;11.07;;
9997;SDS011;5038;53.064;8.624;2022-09-09T06:39:36;10.30;;;9.40;;
9997;SDS011;5038;53.064;8.624;2022-09-09T06:42:05;11.03;;;9.90;;
9997;SDS011;5038;53.064;8.624;2022-09-09T06:44:53;11.90;;;10.70;;
9997;SDS011;5038;53.064;8.624;2022-09-09T06:47:43;11.53;;;8.97;;
9997;SDS011;5038;53.064;8.624;2022-09-09T06:50:13;10.00;;;9.10;;
9997;SDS011;5038;53.064;8.624;2022-09-09T06:52:41;11.73;;;10.53;;
9997;SDS011;5038;53.064;8.624;2022-09-09T06:55:09;9.40;;;8.40;;
9997;SDS011;5038;53.064;8.624;2022-09-09T06:57:39;8.90;;;8.10;;
9997;SDS011;5038;53.064;8.624;2022-09-09T07:00:13;9.50;;;8.67;;
9997;SDS011;5038;53.064;8.624;2022-09-09T07:02:41;8.97;;;7.77;;
9997;SDS011;5038;53.064;8.624;2022-09-09T07:05:13;9.40;;;8.60;;
9997;SDS011;5038;53.064;8.624;2022-09-09T07:07:44;10.87;;;9.47;;
9997;SDS011;5038;53.064;8.624;2022-09-09T07:10:15;8.90;;;7.70;;
9997;SDS011;5038;53.064;8.624;2022-09-09T07:12:44;9.70;;;8.80;;
9997;SDS011;5038;53.064;8.624;2022-09-09T07:15:18;9.97;;;9.00;;
9997;SDS011;5038;53.064;8.624;2022-09-09T07:17:49;9.60;;;8.60;;
9997;SDS011;5038;53.064;8.624;2022-09-09T07:20:18;9.53;;;8.07;;
9997;SDS011;5038;53.064;8.624;2022-09-09T07:22:46;10.73;;;9.67;;
9997;SDS011;5038;53.064;8.624;2022-09-09T07:25:15;13.93;;;8.60;;
9997;SDS011;5038;53.064;8.624;2022-09-09T07:27:45;11.17;;;8.43;;
9997;SDS011;5038;53.064;8.624;2022-09-09T07:30:13;8.80;;;7.57;;
9997;SDS011;5038;53.064;8.624;2022-09-09T07:32:51;9.57;;;8.57;;
9997;SDS011;5038;53.064;8.624;2022-09-09T07:35:20;9.10;;;8.30;;
9997;SDS011;5038;53.064;8.624;2022-09-09T07:37:49;12.33;;;9.10;;
9997;SDS011;5038;53.064;8.624;2022-09-09T07:40:18;8.63;;;7.67;;
9997;SDS011;5038;53.064;8.624;2022-09-09T07:42:49;9.00;;;8.10;;
9997;SDS011;5038;53.064;8.624;2022-09-09T07:45:17;8.80;;;7.97;;
9997;SDS011;5038;53.064;8.624;2022-09-09T07:47:45;9.70;;;7.70;;
9997;SDS011;5038;53.064;8.624;2022-09-09T07:50:14;8.87;;;7.23;;
9997;SDS011;5038;53.064;8.624;2022-09-09T07:52:44;11.20;;;10.00;;
9997;SDS011;5038;53.064;8.624;2022-09-09T07:55:13;8.40;;;7.70;;
9997;SDS011;5038;53.064;8.624;2022-09-09T07:57:42;8.10;;;6.73;;
9997;SDS011;5038;53.064;8.624;2022-09-09T08:00:11;7.00;;;6.17;;
9997;SDS011;5038;53.064;8.624;2022-09-09T08:02:46;6.80;;;6.10;;
9997;SDS011;5038;53.064;8.624;2022-09-09T08:05:15;9.90;;;6.27;;
9997;SDS011;5038;53.064;8.624;2022-09-09T08:07:45;6.40;;;5.80;;
9997;SDS011;5038;53.064;8.624;2022-09-09T08:10:14;6.93;;;5.60;;
9997;SDS011;5038;53.064;8.624;2022-09-09T08:12:44;7.67;;;5.47;;
9997;SDS011;5038;53.064;8.624;2022-09-09T08:15:33;6.83;;;4.97;;
9997;SDS011;5038;53.064;8.624;2022-09-09T08:18:03;6.60;;;5.80;;
9997;SDS011;5038;53.064;8.624;2022-09-09T08:20:32;7.53;;;5.30;;
9997;SDS011;5038;53.064;8.624;2022-09-09T08:23:04;8.53;;;6.07;;
9997;SDS011;5038;53.064;8.624;2022-09-09T08:25:33;6.63;;;5.07;;
9997;SDS011;5038;53.064;8.624;2022-09-09T08:28:02;5.80;;;5.13;;
9997;SDS011;5038;53.064;8.624;2022-09-09T08:30:30;8.90;;;5.90;;
9997;SDS011;5038;53.064;8.624;2022-09-09T08:32:59;9.10;;;7.80;;
9997;SDS011;5038;53.064;8.624;2022-09-09T08:35:27;8.20;;;7.40;;
9997;SDS011;5038;53.064;8.624;2022-09-09T08:37:59;8.87;;;8.07;;
9997;SDS011;5038;53.064;8.624;2022-09-09T08:40:33;8.37;;;7.63;;
9997;SDS011;5038;53.064;8.624;2022-09-09T08:43:10;8.20;;;7.50;;
9997;SDS011;5038;53.064;8.624;2022-09-09T08:45:42;7.97;;;6.60;;
9997;SDS011;5038;53.064;8.624;2022-09-09T08:48:28;7.63;;;6.80;;
9997;SDS011;5038;53.064;8.624;2022-09-09T08:51:11;7.47;;;6.90;;
9997;SDS011;5038;53.064;8.624;2022-09-09T08:53:42;8.30;;;7.50;;
9997;SDS011;5038;53.064;8.624;2022-09-09T08:56:18;7.80;;;7.10;;
9997;SDS011;5038;53.064;8.624;2022-09-09T08:58:52;10.73;;;8.03;;
9997;SDS011;5038;53.064;8.624;2022-09-09T09:01:41;8.63;;;7.93;;
9997;SDS011;5038;53.064;8.624;2022-09-09T09:04:42;6.30;;;5.80;;
9997;SDS011;5038;53.064;8.624;2022-09-09T09:07:23;7.83;;;6.07;;
9997;SDS011;5038;53.064;8.624;2022-09-09T09:10:05;5.40;;;4.73;;
9997;SDS011;5038;53.064;8.624;2022-09-09T09:13:02;6.57;;;4.63;;
9997;SDS011;5038;53.064;8.624;2022-09-09T09:15:33;5.27;;;4.10;;
9997;SDS011;5038;53.064;8.624;2022-09-09T09:18:07;6.23;;;4.23;;
9997;SDS011;5038;53.064;8.624;2022-09-09T09:20:42;5.23;;;3.53;;
9997;SDS011;5038;53.064;8.624;2022-09-09T09:23:24;4.83;;;3.83;;
9997;SDS011;5038;53.064;8.624;2022-09-09T09:25:58;5.33;;;4.10;;
9997;SDS011;5038;53.064;8.624;2022-09-09T09:28:31;4.83;;;4.43;;
9997;SDS011;5038;53.064;8.624;2022-09-09T09:31:09;4.43;;;3.90;;
9997;SDS011;5038;53.064;8.624;2022-09-09T09:33:44;4.77;;;4.10;;
9997;SDS011;5038;53.064;8.624;2022-09-09T09:36:18;7.43;;;4.83;;
9997;SDS011;5038;53.064;8.624;2022-09-09T09:38:54;4.67;;;3.97;;
9997;SDS011;5038;53.064;8.624;2022-09-09T09:41:45;7.20;;;4.30;;
9997;SDS011;5038;53.064;8.624;2022-09-09T09:44:23;4.13;;;3.53;;
9997;SDS011;5038;53.064;8.624;2022-09-09T09:47:05;5.33;;;3.87;;
9997;SDS011;5038;53.064;8.624;2022-09-09T09:49:35;4.60;;;3.40;;
9997;SDS011;5038;53.064;8.624;2022-09-09T09:52:04;6.40;;;3.87;;
9997;SDS011;5038;53.064;8.624;2022-09-09T09:54:37;5.87;;;3.70;;
9997;SDS011;5038;53.064;8.624;2022-09-09T09:57:08;6.87;;;4.20;;
9997;SDS011;5038;53.064;8.624;2022-09-09T09:59:40;4.47;;;4.07;;
9997;SDS011;5038;53.064;8.624;2022-09-09T10:02:24;4.37;;;3.73;;
9997;SDS011;5038;53.064;8.624;2022-09-09T10:05:02;6.30;;;4.07;;
9997;SDS011;5038;53.064;8.624;2022-09-09T10:07:34;5.43;;;4.30;;
9997;SDS011;5038;53.064;8.624;2022-09-09T10:10:04;5.87;;;4.70;;
9997;SDS011;5038;53.064;8.624;2022-09-09T10:12:37;4.63;;;4.23;;
9997;SDS011;5038;53.064;8.624;2022-09-09T10:15:19;5.17;;;4.43;;
9997;SDS011;5038;53.064;8.624;2022-09-09T10:18:00;7.47;;;4.87;;
9997;SDS011;5038;53.064;8.624;2022-09-09T10:20:42;6.07;;;5.47;;
9997;SDS011;5038;53.064;8.624;2022-09-09T10:23:21;5.50;;;5.00;;
9997;SDS011;5038;53.064;8.624;2022-09-09T10:26:03;5.70;;;5.20;;
9997;SDS011;5038;53.064;8.624;2022-09-09T10:28:52;5.67;;;5.10;;
9997;SDS011;5038;53.064;8.624;2022-09-09T10:31:32;8.63;;;5.33;;
9997;SDS011;5038;53.064;8.624;2022-09-09T10:34:12;7.83;;;5.77;;
9997;SDS011;5038;53.064;8.624;2022-09-09T10:36:48;8.20;;;5.13;;
9997;SDS011;5038;53.064;8.624;2022-09-09T10:39:31;6.40;;;5.50;;
9997;SDS011;5038;53.064;8.624;2022-09-09T10:42:09;9.47;;;4.83;;
9997;SDS011;5038;53.064;8.624;2022-09-09T10:44:47;8.37;;;4.67;;
9997;SDS011;5038;53.064;8.624;2022-09-09T10:47:38;4.80;;;4.30;;
9997;SDS011;5038;53.064;8.624;2022-09-09T10:50:29;7.83;;;4.30;;
9997;SDS011;5038;53.064;8.624;2022-09-09T10:53:35;5.37;;;4.30;;
9997;SDS011;5038;53.064;8.624;2022-09-09T10:56:15;8.80;;;5.27;;
9997;SDS011;5038;53.064;8.624;2022-09-09T10:58:47;4.63;;;4.07;;
9997;SDS011;5038;53.064;8.624;2022-09-09T11:01:19;5.10;;;4.00;;
9997;SDS011;5038;53.064;8.624;2022-09-09T11:03:54;4.57;;;3.57;;
9997;SDS011;5038;53.064;8.624;2022-09-09T11:06:28;6.80;;;4.07;;
9997;SDS011;5038;53.064;8.624;2022-09-09T11:09:00;6.80;;;4.10;;
9997;SDS011;5038;53.064;8.624;2022-09-09T11:11:31;4.57;;;3.93;;
9997;SDS011;5038;53.064;8.624;2022-09-09T11:14:05;4.13;;;3.70;;
9997;SDS011;5038;53.064;8.624;2022-09-09T11:16:40;5.00;;;4.50;;
9997;SDS011;5038;53.064;8.624;2022-09-09T11:19:17;7.10;;;4.50;;
9997;SDS011;5038;53.064;8.624;2022-09-09T11:21:52;5.93;;;5.23;;
9997;SDS011;5038;53.064;8.624;2022-09-09T11:24:21;5.80;;;5.03;;
9997;SDS011;5038;53.064;8.624;2022-09-09T11:26:55;5.60;;;4.37;;
9997;SDS011;5038;53.064;8.624;2022-09-09T11:29:36;8.13;;;5.27;;
9997;SDS011;5038;53.064;8.624;2022-09-09T11:32:43;6.70;;;5.00;;
9997;SDS011;5038;53.064;8.624;2022-09-09T11:35:37;5.20;;;4.80;;
9997;SDS011;5038;53.064;8.624;2022-09-09T11:38:18;6.27;;;5.67;;
9997;SDS011;5038;53.064;8.624;2022-09-09T11:40:53;10.03;;;8.97;;
9997;SDS011;5038;53.064;8.624;2022-09-09T11:43:27;9.03;;;5.90;;
9997;SDS011;5038;53.064;8.624;2022-09-09T11:45:59;5.83;;;5.30;;
9997;SDS011;5038;53.064;8.624;2022-09-09T11:48:32;7.03;;;6.07;;
9997;SDS011;5038;53.064;8.624;2022-09-09T11:51:04;9.00;;;7.13;;
9997;SDS011;5038;53.064;8.624;2022-09-09T11:53:48;7.73;;;7.03;;
9997;SDS011;5038;53.064;8.624;2022-09-09T11:56:25;9.07;;;6.40;;
9997;SDS011;5038;53.064;8.624;2022-09-09T11:58:59;8.00;;;6.87;;
9997;SDS011;5038;53.064;8.624;2022-09-09T12:01:33;7.60;;;6.27;;
9997;SDS011;5038;53.064;8.624;2022-09-09T12:04:17;7.30;;;6.20;;
9997;SDS011;5038;53.064;8.624;2022-09-09T12:07:20;5.63;;;5.00;;
9997;SDS011;5038;53.064;8.624;2022-09-09T12:09:55;14.50;;;11.80;;
9997;SDS011;5038;53.064;8.624;2022-09-09T12:12:27;4.67;;;4.03;;
9997;SDS011;5038;53.064;8.624;2022-09-09T12:15:17;5.33;;;3.07;;
9997;SDS011;5038;53.064;8.624;2022-09-09T12:17:48;2.90;;;2.40;;
9997;SDS011;5038;53.064;8.624;2022-09-09T12:20:18;4.87;;;3.20;;
9997;SDS011;5038;53.064;8.624;2022-09-09T12:22:55;3.80;;;2.23;;
9997;SDS011;5038;53.064;8.624;2022-09-09T12:25:41;3.50;;;2.30;;
9997;SDS011;5038;53.064;8.624;2022-09-09T12:28:25;3.37;;;2.30;;
9997;SDS011;5038;53.064;8.624;2022-09-09T12:31:08;2.90;;;2.40;;
9997;SDS011;5038;53.064;8.624;2022-09-09T12:33:45;3.80;;;2.27;;
9997;SDS011;5038;53.064;8.624;2022-09-09T12:36:15;6.10;;;2.20;;
9997;SDS011;5038;53.064;8.624;2022-09-09T12:38:47;4.27;;;2.70;;
9997;SDS011;5038;53.064;8.624;2022-09-09T12:41:20;5.03;;;2.87;;
9997;SDS011;5038;53.064;8.624;2022-09-09T12:43:50;4.80;;;2.73;;
9997;SDS011;5038;53.064;8.624;2022-09-09T12:46:23;3.80;;;2.50;;
9997;SDS011;5038;53.064;8.624;2022-09-09T12:48:59;6.70;;;3.60;;
9997;SDS011;5038;53.064;8.624;2022-09-09T12:51:29;4.00;;;2.90;;
9997;SDS011;5038;53.064;8.624;2022-09-09T12:54:00;4.60;;;3.53;;
9997;SDS011;5038;53.064;8.624;2022-09-09T12:56:29;4.80;;;2.57;;
9997;SDS011;5038;53.064;8.624;2022-09-09T12:58:59;4.63;;;2.40;;
9997;SDS011;5038;53.064;8.624;2022-09-09T13:01:28;4.73;;;2.33;;
9997;SDS011;5038;53.064;8.624;2022-09-09T13:03:58;3.70;;;2.83;;
9997;SDS011;5038;53.064;8.624;2022-09-09T13:06:28;4.10;;;2.07;;
9997;SDS011;5038;53.064;8.624;2022-09-09T13:08:59;4.00;;;1.90;;
9997;SDS011;5038;53.064;8.624;2022-09-09T13:11:30;5.13;;;2.00;;
9997;SDS011;5038;53.064;8.624;2022-09-09T13:14:04;7.10;;;2.40;;
9997;SDS011;5038;53.064;8.624;2022-09-09T13:16:33;4.17;;;2.40;;
9997;SDS011;5038;53.064;8.624;2022-09-09T13:19:08;3.83;;;2.60;;
9997;SDS011;5038;53.064;8.624;2022-09-09T13:21:43;3.63;;;2.70;;
9997;SDS011;5038;53.064;8.624;2022-09-09T13:24:23;6.50;;;3.70;;
9997;SDS011;5038;53.064;8.624;2022-09-09T13:26:56;6.03;;;3.47;;
9997;SDS011;5038;53.064;8.624;2022-09-09T13:29:25;5.60;;;3.60;;
9997;SDS011;5038;53.064;8.624;2022-09-09T13:31:54;7.13;;;3.80;;
9997;SDS011;5038;53.064;8.624;2022-09-09T13:34:33;5.57;;;3.40;;
9997;SDS011;5038;53.064;8.624;2022-09-09T13:37:03;5.20;;;3.50;;
9997;SDS011;5038;53.064;8.624;2022-09-09T13:39:34;16.90;;;5.03;;
9997;SDS011;5038;53.064;8.624;2022-09-09T13:42:04;7.60;;;6.40;;
9997;SDS011;5038;53.064;8.624;2022-09-09T13:44:34;8.30;;;5.70;;
9997;SDS011;5038;53.064;8.624;2022-09-09T13:47:04;6.40;;;5.00;;
9997;SDS011;5038;53.064;8.624;2022-09-09T13:49:43;6.70;;;4.40;;
9997;SDS011;5038;53.064;8.624;2022-09-09T13:52:12;6.10;;;5.50;;
9997;SDS011;5038;53.064;8.624;2022-09-09T13:54:46;5.03;;;4.40;;
9997;SDS011;5038;53.064;8.624;2022-09-09T13:57:16;7.20;;;4.43;;
9997;SDS011;5038;53.064;8.624;2022-09-09T13:59:45;9.10;;;6.13;;
9997;SDS011;5038;53.064;8.624;2022-09-09T14:02:30;13.70;;;12.33;;
9997;SDS011;5038;53.064;8.624;2022-09-09T14:04:58;7.87;;;5.73;;
9997;SDS011;5038;53.064;8.624;2022-09-09T14:07:26;7.47;;;6.00;;
9997;SDS011;5038;53.064;8.624;2022-09-09T14:09:56;7.17;;;6.00;;
9997;SDS011;5038;53.064;8.624;2022-09-09T14:12:26;11.80;;;7.00;;
9997;SDS011;5038;53.064;8.624;2022-09-09T14:14:54;10.37;;;6.20;;
9997;SDS011;5038;53.064;8.624;2022-09-09T14:17:23;7.27;;;6.67;;
9997;SDS011;5038;53.064;8.624;2022-09-09T14:19:51;7.50;;;6.40;;
9997;SDS011;5038;53.064;8.624;2022-09-09T14:22:19;7.03;;;6.07;;
9997;SDS011;5038;53.064;8.624;2022-09-09T14:24:47;7.37;;;6.77;;
9997;SDS011;5038;53.064;8.624;2022-09-09T14:27:17;7.70;;;6.90;;
9997;SDS011;5038;53.064;8.624;2022-09-09T14:29:46;6.83;;;6.23;;
9997;SDS011;5038;53.064;8.624;2022-09-09T14:32:14;8.17;;;7.30;;
9997;SDS011;5038;53.064;8.624;2022-09-09T14:34:42;8.07;;;7.27;;
9997;SDS011;5038;53.064;8.624;2022-09-09T14:37:10;9.73;;;8.20;;
9997;SDS011;5038;53.064;8.624;2022-09-09T14:39:39;8.90;;;8.10;;
9997;SDS011;5038;53.064;8.624;2022-09-09T14:42:07;8.40;;;7.60;;
9997;SDS011;5038;53.064;8.624;2022-09-09T14:44:39;8.40;;;7.20;;
9997;SDS011;5038;53.064;8.624;2022-09-09T14:47:08;7.03;;;6.40;;
9997;SDS011;5038;53.064;8.624;2022-09-09T14:49:36;8.27;;;7.40;;
9997;SDS011;5038;53.064;8.624;2022-09-09T14:52:09;7.63;;;7.03;;
9997;SDS011;5038;53.064;8.624;2022-09-09T14:54:37;8.37;;;7.63;;
9997;SDS011;5038;53.064;8.624;2022-09-09T14:57:06;9.10;;;7.97;;
9997;SDS011;5038;53.064;8.624;2022-09-09T14:59:34;8.07;;;7.37;;
9997;SDS011;5038;53.064;8.624;2022-09-09T15:02:04;9.30;;;8.50;;
9997;SDS011;5038;53.064;8.624;2022-09-09T15:04:32;9.77;;;8.97;;
9997;SDS011;5038;53.064;8.624;2022-09-09T15:07:00;11.10;;;10.10;;
9997;SDS011;5038;53.064;8.624;2022-09-09T15:09:29;10.90;;;10.00;;
9997;SDS011;5038;53.064;8.624;2022-09-09T15:11:57;12.10;;;10.80;;
9997;SDS011;5038;53.064;8.624;2022-09-09T15:14:25;11.20;;;10.33;;
9997;SDS011;5038;53.064;8.624;2022-09-09T15:16:54;10.80;;;9.80;;
9997;SDS011;5038;53.064;8.624;2022-09-09T15:19:23;12.53;;;11.23;;
9997;SDS011;5038;53.064;8.624;2022-09-09T15:21:51;11.50;;;10.40;;
9997;SDS011;5038;53.064;8.624;2022-09-09T15:24:20;10.97;;;9.97;;
9997;SDS011;5038;53.064;8.624;2022-09-09T15:26:49;9.87;;;8.50;;
9997;SDS011;5038;53.064;8.624;2022-09-09T15:29:17;8.90;;;7.70;;
9997;SDS011;5038;53.064;8.624;2022-09-09T15:31:45;7.90;;;7.20;;
9997;SDS011;5038;53.064;8.624;2022-09-09T15:34:14;8.53;;;7.73;;
9997;SDS011;5038;53.064;8.624;2022-09-09T15:36:44;8.03;;;7.10;;
9997;SDS011;5038;53.064;8.624;2022-09-09T15:39:14;9.20;;;8.20;;